Time;durP1;ratioP1;P1;durP2;ratioP2;P2;SDS_P1;SDS_P2;PMS_P1;PMS_P2;Temp;Humidity;BMP_temperature;BMP_pressure;BME280_temperature;BME280_humidity;BME280_pressure;Samples;Min_cycle;Max_cycle;Signal;HPM_P1;HPM_P2
2022/12/14 00:01:39;;;;;;;7.55;3.50;;;13.50;99.90;;;;;;4961361;28;20263;-72
2022/12/14 00:04:06;;;;;;;8.77;3.28;;;13.40;99.90;;;;;;4965256;28;20383;-72
2022/12/14 00:06:34;;;;;;;9.23;3.45;;;13.50;99.90;;;;;;4968195;28;20074;-72
2022/12/14 00:09:03;;;;;;;11.95;3.95;;;13.50;99.90;;;;;;4963564;28;20051;-72
2022/12/14 00:11:32;;;;;;;10.43;3.63;;;13.40;99.90;;;;;;4964161;28;20043;-72
2022/12/14 00:14:01;;;;;;;6.50;3.88;;;13.40;99.90;;;;;;4933790;28;20046;-72
2022/12/14 00:16:31;;;;;;;9.68;3.97;;;13.40;99.90;;;;;;4958209;28;20047;-72
2022/12/14 00:19:00;;;;;;;6.10;2.60;;;13.40;99.90;;;;;;4965216;28;20061;-72
2022/12/14 00:21:28;;;;;;;14.60;3.33;;;13.50;99.90;;;;;;4958131;28;20054;-72
2022/12/14 00:23:57;;;;;;;8.55;4.22;;;13.50;99.90;;;;;;4964651;28;20039;-72
2022/12/14 00:26:28;;;;;;;8.48;4.55;;;13.40;99.90;;;;;;4968608;28;20090;-72
2022/12/14 00:28:58;;;;;;;11.43;4.05;;;13.40;99.90;;;;;;4967552;28;20042;-72
2022/12/14 00:31:25;;;;;;;5.38;2.58;;;13.40;99.90;;;;;;4967867;28;20035;-72
2022/12/14 00:33:54;;;;;;;5.60;3.17;;;13.40;99.90;;;;;;4960211;28;20056;-72
2022/12/14 00:36:23;;;;;;;12.10;3.70;;;13.40;99.90;;;;;;4957402;28;20050;-72
2022/12/14 00:38:50;;;;;;;9.75;3.13;;;13.40;99.90;;;;;;4940433;28;20110;-72
2022/12/14 00:41:18;;;;;;;3.67;2.50;;;13.30;99.90;;;;;;4974926;28;20050;-73
2022/12/14 00:43:45;;;;;;;7.65;3.05;;;13.30;99.90;;;;;;4965441;28;20130;-72
2022/12/14 00:46:13;;;;;;;5.80;3.17;;;13.40;99.90;;;;;;4946759;28;20129;-72
2022/12/14 00:48:41;;;;;;;4.10;2.40;;;13.30;99.90;;;;;;4965468;28;20054;-72
2022/12/14 00:51:09;;;;;;;7.95;2.80;;;13.30;99.90;;;;;;4965314;28;20047;-71
2022/12/14 00:53:36;;;;;;;4.97;2.45;;;13.30;99.90;;;;;;4968758;28;20220;-72
2022/12/14 00:56:06;;;;;;;7.15;2.88;;;13.40;99.90;;;;;;4962743;28;20055;-72
2022/12/14 00:58:34;;;;;;;8.15;3.15;;;13.40;99.90;;;;;;4962927;28;20043;-72
2022/12/14 01:01:05;;;;;;;5.43;2.65;;;13.40;99.90;;;;;;4955112;28;20180;-71
2022/12/14 01:03:33;;;;;;;7.20;2.55;;;13.40;99.90;;;;;;4956113;28;20051;-71
2022/12/14 01:06:01;;;;;;;10.15;3.75;;;13.40;99.90;;;;;;4953161;28;20070;-71
2022/12/14 01:08:34;;;;;;;6.72;2.70;;;13.30;99.90;;;;;;4959553;28;20643;-72
2022/12/14 01:11:04;;;;;;;8.57;4.40;;;13.30;99.90;;;;;;4963775;28;20485;-72
2022/12/14 01:13:32;;;;;;;5.72;3.25;;;13.30;99.90;;;;;;4961931;28;20050;-72
2022/12/14 01:16:08;;;;;;;9.68;2.97;;;13.30;99.90;;;;;;4970481;28;20047;-72
2022/12/14 01:18:37;;;;;;;9.65;4.20;;;13.30;99.90;;;;;;4959034;28;20090;-71
2022/12/14 01:21:09;;;;;;;13.52;4.30;;;13.30;99.90;;;;;;4965374;28;20102;-72
2022/12/14 01:23:37;;;;;;;11.18;4.90;;;13.30;99.90;;;;;;4962592;28;20174;-71
2022/12/14 01:26:04;;;;;;;7.55;3.72;;;13.30;99.90;;;;;;4973567;28;20378;-71
2022/12/14 01:28:34;;;;;;;9.70;3.50;;;13.30;99.90;;;;;;4962346;28;20057;-72
2022/12/14 01:31:10;;;;;;;8.23;4.35;;;13.20;99.90;;;;;;4962695;28;20043;-72
2022/12/14 01:33:38;;;;;;;7.10;3.85;;;13.30;99.90;;;;;;4955733;28;20069;-71
2022/12/14 01:36:21;;;;;;;8.02;3.70;;;13.20;99.90;;;;;;4974585;28;20038;-72
2022/12/14 01:38:57;;;;;;;12.98;4.63;;;13.20;99.90;;;;;;4960626;28;20042;-72
2022/12/14 01:41:26;;;;;;;7.35;3.75;;;13.20;99.90;;;;;;4965651;28;20078;-72
2022/12/14 01:43:55;;;;;;;10.80;3.38;;;13.20;99.90;;;;;;4957130;28;20045;-72
2022/12/14 01:46:44;;;;;;;10.38;3.30;;;13.20;99.90;;;;;;4963374;28;20049;-72
2022/12/14 01:49:21;;;;;;;11.00;3.58;;;13.20;99.90;;;;;;4939543;28;20043;-72
2022/12/14 01:52:00;;;;;;;10.93;4.65;;;13.20;99.90;;;;;;4960702;28;20408;-72
2022/12/14 01:54:31;;;;;;;14.20;5.25;;;13.20;99.90;;;;;;4960179;28;20071;-72
2022/12/14 01:56:58;;;;;;;14.48;4.38;;;13.20;99.90;;;;;;4961259;28;20043;-72
2022/12/14 01:59:37;;;;;;;8.77;4.32;;;13.20;99.90;;;;;;4968725;28;20047;-71
2022/12/14 02:02:06;;;;;;;9.55;4.13;;;13.20;99.90;;;;;;4970030;28;20051;-72
2022/12/14 02:04:41;;;;;;;17.65;4.95;;;13.20;99.90;;;;;;4960041;28;20083;-72
2022/12/14 02:07:12;;;;;;;10.65;4.13;;;13.20;99.90;;;;;;4965651;28;20046;-72
2022/12/14 02:09:42;;;;;;;8.70;3.80;;;13.20;99.90;;;;;;4965232;28;20051;-72
2022/12/14 02:12:16;;;;;;;10.07;4.05;;;13.20;99.90;;;;;;4964025;28;20536;-73
2022/12/14 02:14:45;;;;;;;12.50;5.00;;;13.20;99.90;;;;;;4966211;28;20049;-72
2022/12/14 02:17:14;;;;;;;11.57;4.72;;;13.20;99.90;;;;;;4965649;28;20051;-72
2022/12/14 02:19:42;;;;;;;11.80;4.60;;;13.20;99.90;;;;;;4960415;28;20102;-71
2022/12/14 02:22:25;;;;;;;7.47;4.15;;;13.10;99.90;;;;;;4972817;28;20074;-72
2022/12/14 02:25:08;;;;;;;9.48;3.97;;;13.10;99.90;;;;;;4972539;28;20043;-71
2022/12/14 02:27:59;;;;;;;15.98;4.50;;;13.10;99.90;;;;;;4972171;28;20066;-72
2022/12/14 02:30:33;;;;;;;13.73;3.42;;;13.20;99.90;;;;;;4949260;28;20046;-72
2022/12/14 02:33:01;;;;;;;13.18;4.53;;;13.20;99.90;;;;;;4952470;29;20525;-72
2022/12/14 02:35:47;;;;;;;24.42;4.82;;;13.20;99.90;;;;;;4954204;28;20055;-72
2022/12/14 02:38:20;;;;;;;13.00;5.03;;;13.20;99.90;;;;;;4953920;28;20109;-72
2022/12/14 02:41:05;;;;;;;8.85;3.45;;;13.20;99.90;;;;;;4954983;28;20043;-71
2022/12/14 02:43:56;;;;;;;10.95;4.45;;;13.20;99.90;;;;;;4973114;28;20066;-72
2022/12/14 02:46:42;;;;;;;11.52;3.42;;;13.20;99.90;;;;;;4971888;28;20046;-72
2022/12/14 02:49:32;;;;;;;10.80;3.75;;;13.20;99.90;;;;;;4956219;28;20398;-72
2022/12/14 02:52:29;;;;;;;10.00;2.92;;;13.20;99.90;;;;;;4966416;28;20066;-72
2022/12/14 02:55:19;;;;;;;17.60;4.70;;;13.20;99.90;;;;;;4958386;28;20047;-72
2022/12/14 02:57:56;;;;;;;8.15;3.30;;;13.20;99.90;;;;;;4969588;28;20413;-72
2022/12/14 03:00:24;;;;;;;9.88;3.65;;;13.30;99.90;;;;;;4971587;28;20058;-72
2022/12/14 03:02:52;;;;;;;10.00;4.43;;;13.20;99.90;;;;;;4971777;28;20065;-72
2022/12/14 03:05:21;;;;;;;6.15;3.40;;;13.30;99.90;;;;;;4972603;28;20062;-72
2022/12/14 03:07:50;;;;;;;7.30;3.22;;;13.20;99.90;;;;;;4973198;28;20150;-72
2022/12/14 03:10:23;;;;;;;10.05;4.72;;;13.20;99.90;;;;;;4971336;28;20053;-72
2022/12/14 03:13:00;;;;;;;6.13;4.13;;;13.20;99.90;;;;;;4968611;28;20039;-72
2022/12/14 03:15:29;;;;;;;7.80;3.35;;;13.20;99.90;;;;;;4935723;29;20061;-72
2022/12/14 03:18:01;;;;;;;11.70;4.18;;;13.20;99.90;;;;;;4945744;28;20061;-72
2022/12/14 03:20:33;;;;;;;12.40;4.22;;;13.20;99.90;;;;;;4972163;28;20065;-72
2022/12/14 03:23:07;;;;;;;11.63;3.72;;;13.20;99.90;;;;;;4970490;28;20051;-72
2022/12/14 03:26:06;;;;;;;7.68;3.42;;;13.20;99.90;;;;;;4938399;29;20236;-73
2022/12/14 03:28:57;;;;;;;9.27;4.25;;;13.20;99.90;;;;;;4965487;28;20171;-72
2022/12/14 03:31:47;;;;;;;13.45;4.35;;;13.30;99.90;;;;;;4970724;28;20417;-72
2022/12/14 03:34:19;;;;;;;7.13;3.70;;;13.40;99.90;;;;;;4969578;28;20145;-72
2022/12/14 03:36:51;;;;;;;24.88;4.57;;;13.40;99.90;;;;;;4964347;28;20442;-72
2022/12/14 03:39:26;;;;;;;10.32;3.67;;;13.40;99.90;;;;;;4970239;28;20057;-73
2022/12/14 03:41:59;;;;;;;7.85;3.78;;;13.40;99.90;;;;;;4970728;28;20050;-71
2022/12/14 03:44:33;;;;;;;11.60;3.28;;;13.40;99.90;;;;;;4972144;28;20050;-72
2022/12/14 03:47:31;;;;;;;9.95;4.95;;;13.40;99.90;;;;;;4970491;28;20413;-73
2022/12/14 03:50:02;;;;;;;8.50;3.40;;;13.40;99.90;;;;;;4971050;28;20485;-72
2022/12/14 03:52:42;;;;;;;13.15;3.75;;;13.40;99.90;;;;;;4970024;28;20511;-72
2022/12/14 03:55:38;;;;;;;10.10;3.60;;;13.40;99.90;;;;;;4968964;28;20476;-72
2022/12/14 03:58:31;;;;;;;10.35;3.80;;;13.50;99.90;;;;;;4951389;29;20055;-72
2022/12/14 04:01:05;;;;;;;14.15;3.42;;;13.50;99.90;;;;;;4951575;29;20047;-72
2022/12/14 04:03:51;;;;;;;13.25;6.07;;;13.50;99.90;;;;;;4951129;29;20055;-72
2022/12/14 04:06:37;;;;;;;10.30;4.43;;;13.60;99.90;;;;;;4958380;28;20043;-71
2022/12/14 04:09:26;;;;;;;11.93;4.18;;;13.60;99.90;;;;;;4970060;28;20583;-72
2022/12/14 04:20:42;;;;;;;11.48;3.20;;;13.60;99.90;;;;;;4970336;28;20441;-71
2022/12/14 04:26:26;;;;;;;11.05;3.40;;;13.50;99.90;;;;;;4971111;28;20082;-72
2022/12/14 04:31:56;;;;;;;9.73;4.00;;;13.50;99.90;;;;;;4950541;29;20078;-72
2022/12/14 04:34:27;;;;;;;14.88;5.38;;;13.50;99.90;;;;;;4934595;29;20054;-72
2022/12/14 04:36:57;;;;;;;14.93;4.15;;;13.50;99.90;;;;;;4952072;28;20043;-72
2022/12/14 04:39:43;;;;;;;7.85;3.85;;;13.50;99.90;;;;;;4969473;28;20395;-72
2022/12/14 04:42:14;;;;;;;11.15;4.32;;;13.50;99.90;;;;;;4951845;29;20109;-72
2022/12/14 04:44:51;;;;;;;13.55;4.38;;;13.50;99.90;;;;;;4950497;28;20576;-72
2022/12/14 04:47:19;;;;;;;9.85;4.40;;;13.50;99.90;;;;;;4953292;28;20046;-73
2022/12/14 04:49:56;;;;;;;16.52;4.15;;;13.50;99.90;;;;;;4953009;28;20050;-73
2022/12/14 04:52:26;;;;;;;9.35;3.13;;;13.50;99.90;;;;;;4969214;28;20052;-72
2022/12/14 04:55:19;;;;;;;11.68;4.00;;;13.50;99.90;;;;;;4970701;28;20047;-72
2022/12/14 04:57:59;;;;;;;6.60;3.70;;;13.50;99.90;;;;;;4964757;28;20395;-72
2022/12/14 05:00:31;;;;;;;10.60;3.75;;;13.50;99.90;;;;;;4956589;28;20050;-72
2022/12/14 05:03:28;;;;;;;13.70;3.55;;;13.50;99.90;;;;;;4953649;28;20442;-72
2022/12/14 05:06:09;;;;;;;13.13;3.88;;;13.50;99.90;;;;;;4953426;28;20058;-72
2022/12/14 05:09:23;;;;;;;13.73;4.65;;;13.40;99.90;;;;;;4944966;29;20138;-72
2022/12/14 05:12:03;;;;;;;12.35;3.83;;;13.40;99.90;;;;;;4946595;29;20055;-71
2022/12/14 05:14:36;;;;;;;9.30;3.95;;;13.40;99.90;;;;;;4950990;28;20634;-72
2022/12/14 05:17:05;;;;;;;11.43;4.72;;;13.50;99.90;;;;;;4955095;28;20034;-71
2022/12/14 05:19:35;;;;;;;10.13;4.15;;;13.50;99.90;;;;;;4951254;28;20404;-72
2022/12/14 05:22:05;;;;;;;14.00;4.70;;;13.50;99.90;;;;;;4940255;29;20410;-72
2022/12/14 05:24:33;;;;;;;14.25;4.50;;;13.50;99.90;;;;;;4949741;29;20059;-71
2022/12/14 05:27:01;;;;;;;12.98;4.38;;;13.60;99.90;;;;;;4958901;28;20071;-72
2022/12/14 05:29:29;;;;;;;11.00;4.93;;;13.60;99.90;;;;;;4961669;28;20401;-72
2022/12/14 05:31:57;;;;;;;11.65;4.45;;;13.60;99.90;;;;;;4958399;28;20043;-72
2022/12/14 05:34:25;;;;;;;11.18;4.63;;;13.60;99.90;;;;;;4970098;28;20757;-72
2022/12/14 05:36:53;;;;;;;8.70;3.92;;;13.60;99.90;;;;;;4969867;28;20481;-72
2022/12/14 05:39:20;;;;;;;9.90;4.25;;;13.60;99.90;;;;;;4968140;28;20057;-72
2022/12/14 05:41:48;;;;;;;12.38;5.75;;;13.60;99.90;;;;;;4960617;28;20817;-72
2022/12/14 05:44:15;;;;;;;10.40;5.13;;;13.50;99.90;;;;;;4964290;28;20483;-72
2022/12/14 05:46:43;;;;;;;20.38;5.53;;;13.50;99.90;;;;;;4952592;28;20058;-72
2022/12/14 05:49:11;;;;;;;14.73;4.80;;;13.50;99.90;;;;;;4969712;28;20050;-71
2022/12/14 05:51:39;;;;;;;10.38;4.50;;;13.50;99.90;;;;;;4969285;28;20051;-72
2022/12/14 05:54:06;;;;;;;26.83;4.32;;;13.50;99.90;;;;;;4939662;29;20074;-72
2022/12/14 05:56:34;;;;;;;9.85;3.17;;;13.60;99.90;;;;;;4951040;28;20046;-72
2022/12/14 05:59:01;;;;;;;8.95;4.25;;;13.60;99.90;;;;;;4948578;29;20062;-72
2022/12/14 06:01:29;;;;;;;12.73;4.05;;;13.70;99.90;;;;;;4964107;28;20107;-72
2022/12/14 06:03:56;;;;;;;7.90;4.53;;;13.70;99.90;;;;;;4967171;28;20058;-72
2022/12/14 06:06:24;;;;;;;9.95;3.80;;;13.70;99.90;;;;;;4949767;28;20047;-71
2022/12/14 06:08:51;;;;;;;17.80;4.97;;;13.70;99.90;;;;;;4948767;29;20490;-71
2022/12/14 06:11:21;;;;;;;9.98;4.00;;;13.70;99.90;;;;;;4949241;29;20046;-73
2022/12/14 06:13:49;;;;;;;17.30;4.47;;;13.70;99.90;;;;;;4949253;29;20044;-72
2022/12/14 06:16:22;;;;;;;19.63;4.85;;;13.80;99.90;;;;;;4949767;29;20138;-71
2022/12/14 06:18:57;;;;;;;10.20;4.80;;;13.80;99.90;;;;;;4950527;28;20058;-71
2022/12/14 06:21:28;;;;;;;9.82;4.75;;;13.80;99.90;;;;;;4961216;28;20134;-72
2022/12/14 06:23:56;;;;;;;19.80;7.45;;;13.90;99.90;;;;;;4952633;28;20047;-71
2022/12/14 06:26:25;;;;;;;13.00;5.30;;;13.90;99.90;;;;;;4969480;28;20042;-71
2022/12/14 06:28:54;;;;;;;17.77;5.18;;;13.90;99.90;;;;;;4957082;28;20039;-72
2022/12/14 06:31:28;;;;;;;17.02;7.07;;;14.00;99.90;;;;;;4969248;28;20174;-72
2022/12/14 06:34:01;;;;;;;11.55;4.63;;;14.00;99.90;;;;;;4969737;28;20047;-72
2022/12/14 06:36:32;;;;;;;10.50;4.78;;;14.00;99.90;;;;;;4968366;28;20039;-72
2022/12/14 06:39:01;;;;;;;10.68;4.93;;;14.00;99.90;;;;;;4965534;28;20039;-72
2022/12/14 06:41:29;;;;;;;14.77;5.90;;;14.10;99.90;;;;;;4948524;29;20078;-72
2022/12/14 06:44:04;;;;;;;20.45;6.03;;;14.10;99.90;;;;;;4950062;28;20054;-72
2022/12/14 06:46:33;;;;;;;14.32;5.60;;;14.10;99.90;;;;;;4953704;28;20048;-72
2022/12/14 06:49:00;;;;;;;20.08;5.80;;;14.10;99.90;;;;;;4969896;28;20103;-72
2022/12/14 06:51:28;;;;;;;13.23;4.05;;;14.10;99.90;;;;;;4971354;28;20042;-72
2022/12/14 06:53:57;;;;;;;10.93;4.40;;;14.10;99.90;;;;;;4971398;28;20101;-72
2022/12/14 06:56:26;;;;;;;13.45;6.15;;;14.20;99.90;;;;;;4955608;28;20035;-72
2022/12/14 06:58:54;;;;;;;11.88;5.10;;;14.20;99.90;;;;;;4971785;28;20038;-73
2022/12/14 07:01:23;;;;;;;9.85;4.45;;;14.20;99.90;;;;;;4971844;28;20109;-73
2022/12/14 07:03:56;;;;;;;17.98;5.13;;;14.30;99.90;;;;;;4959505;28;20043;-72
2022/12/14 07:06:26;;;;;;;16.17;6.65;;;14.30;99.90;;;;;;4963383;28;20043;-73
2022/12/14 07:08:56;;;;;;;12.30;5.10;;;14.30;99.90;;;;;;4957439;28;20110;-72
2022/12/14 07:11:25;;;;;;;10.02;4.60;;;14.40;99.90;;;;;;4949743;28;20046;-73
2022/12/14 07:13:53;;;;;;;14.10;6.07;;;14.40;99.90;;;;;;4963207;28;20047;-73
2022/12/14 07:16:23;;;;;;;14.02;7.53;;;14.50;99.90;;;;;;4955547;28;20358;-74
2022/12/14 07:18:52;;;;;;;12.98;5.90;;;14.50;99.90;;;;;;4966934;28;20568;-72
2022/12/14 07:21:21;;;;;;;17.40;5.88;;;14.50;99.90;;;;;;4962435;28;20058;-73
2022/12/14 07:23:53;;;;;;;19.35;8.48;;;14.60;99.90;;;;;;4962747;28;20069;-73
2022/12/14 07:26:23;;;;;;;14.63;6.22;;;14.60;99.90;;;;;;4964208;28;20138;-72
2022/12/14 07:28:52;;;;;;;13.73;6.57;;;14.60;99.90;;;;;;4967304;28;20666;-72
2022/12/14 07:31:24;;;;;;;11.45;5.82;;;14.60;99.90;;;;;;4966562;28;20129;-74
2022/12/14 07:33:54;;;;;;;13.07;6.85;;;14.70;99.90;;;;;;4970391;28;20389;-73
2022/12/14 07:36:23;;;;;;;15.07;7.50;;;14.70;99.90;;;;;;4962763;28;20054;-72
2022/12/14 07:38:53;;;;;;;20.17;6.63;;;14.70;99.90;;;;;;4964151;28;20350;-72
2022/12/14 07:41:23;;;;;;;14.35;6.35;;;14.70;99.90;;;;;;4964324;28;20047;-72
2022/12/14 07:43:53;;;;;;;18.48;5.85;;;14.70;99.90;;;;;;4968900;28;20038;-73
2022/12/14 07:46:23;;;;;;;15.25;5.82;;;14.70;99.90;;;;;;4964584;28;20052;-73
2022/12/14 07:48:53;;;;;;;12.10;5.25;;;14.80;99.90;;;;;;4963618;28;20070;-73
2022/12/14 07:51:25;;;;;;;25.65;6.82;;;14.80;99.90;;;;;;4966307;28;20070;-72
2022/12/14 07:53:54;;;;;;;12.43;4.97;;;14.80;99.90;;;;;;4967851;28;20163;-73
2022/12/14 07:56:24;;;;;;;12.10;5.28;;;14.80;99.90;;;;;;4959583;28;20366;-73
2022/12/14 07:58:53;;;;;;;8.57;5.22;;;14.90;99.90;;;;;;4963528;28;20117;-72
2022/12/14 08:01:24;;;;;;;12.70;6.93;;;14.90;99.90;;;;;;4966198;28;20885;-73
2022/12/14 08:04:06;;;;;;;17.10;6.05;;;14.90;99.90;;;;;;4954397;28;20050;-72
2022/12/14 08:06:34;;;;;;;12.50;5.55;;;15.00;99.90;;;;;;4967410;28;20189;-72
2022/12/14 08:09:03;;;;;;;16.23;7.22;;;15.00;99.90;;;;;;4959080;28;20055;-73
2022/12/14 08:11:30;;;;;;;14.30;5.07;;;15.10;99.90;;;;;;4962063;28;20053;-73
2022/12/14 08:14:04;;;;;;;15.25;6.75;;;15.20;99.90;;;;;;4958096;28;20130;-72
2022/12/14 08:16:32;;;;;;;24.75;5.75;;;15.20;99.90;;;;;;4966008;28;20510;-73
2022/12/14 08:19:00;;;;;;;11.52;6.63;;;15.30;99.90;;;;;;4956894;28;20051;-72
2022/12/14 08:21:29;;;;;;;20.85;6.28;;;15.40;99.90;;;;;;4967031;28;20046;-72
2022/12/14 08:23:56;;;;;;;16.90;6.30;;;15.40;99.90;;;;;;4971350;28;20054;-72
2022/12/14 08:26:25;;;;;;;19.08;5.97;;;15.50;99.90;;;;;;4970184;28;20062;-73
2022/12/14 08:28:55;;;;;;;13.98;7.60;;;15.60;99.90;;;;;;4955752;28;20069;-72
2022/12/14 08:31:25;;;;;;;13.40;5.35;;;15.60;99.90;;;;;;4970990;28;20046;-72
2022/12/14 08:33:53;;;;;;;16.02;6.57;;;15.60;99.90;;;;;;4954104;28;20400;-72
2022/12/14 08:36:23;;;;;;;12.68;5.53;;;15.70;99.90;;;;;;4971220;28;20058;-72
2022/12/14 08:38:55;;;;;;;18.95;5.45;;;15.70;99.90;;;;;;4969928;28;20042;-73
2022/12/14 08:41:24;;;;;;;9.50;5.38;;;15.70;99.90;;;;;;4964832;28;20043;-72
2022/12/14 08:43:57;;;;;;;19.75;5.63;;;15.70;99.90;;;;;;4970231;28;20545;-72
2022/12/14 08:46:27;;;;;;;18.23;6.28;;;15.70;99.90;;;;;;4967975;28;20058;-72
2022/12/14 08:48:55;;;;;;;12.43;5.88;;;15.80;99.90;;;;;;4959460;28;20047;-72
2022/12/14 08:51:24;;;;;;;15.27;5.32;;;15.70;99.90;;;;;;4969290;28;20081;-72
2022/12/14 08:53:53;;;;;;;11.63;5.40;;;15.80;99.90;;;;;;4970962;28;20047;-72
2022/12/14 08:56:24;;;;;;;17.38;6.90;;;15.90;99.90;;;;;;4971029;28;20102;-72
2022/12/14 08:58:52;;;;;;;16.60;4.35;;;15.90;99.90;;;;;;4969199;28;20051;-72
2022/12/14 09:01:28;;;;;;;11.10;5.47;;;15.90;99.90;;;;;;4969287;28;20052;-73
2022/12/14 09:04:04;;;;;;;11.73;5.15;;;15.90;99.90;;;;;;4967472;28;20046;-72
2022/12/14 09:06:34;;;;;;;11.13;3.90;;;15.90;99.90;;;;;;4964489;28;20039;-72
2022/12/14 09:09:03;;;;;;;8.45;4.32;;;16.00;99.90;;;;;;4951151;28;20067;-72
2022/12/14 09:11:30;;;;;;;15.13;5.63;;;16.00;99.90;;;;;;4949576;29;20043;-72
2022/12/14 09:13:58;;;;;;;9.85;4.55;;;16.10;99.90;;;;;;4951562;28;20043;-72
2022/12/14 09:16:26;;;;;;;15.48;5.28;;;16.10;99.90;;;;;;4934121;29;20055;-72
2022/12/14 09:18:54;;;;;;;11.38;4.20;;;16.10;99.90;;;;;;4951496;28;20117;-71
2022/12/14 09:21:22;;;;;;;11.73;5.10;;;16.20;99.90;;;;;;4948700;29;20202;-72
2022/12/14 09:23:51;;;;;;;10.85;5.40;;;16.20;99.90;;;;;;4947677;28;20050;-72
2022/12/14 09:26:22;;;;;;;9.95;4.80;;;16.20;99.90;;;;;;4932394;29;20145;-72
2022/12/14 09:28:52;;;;;;;16.50;4.95;;;16.20;99.90;;;;;;4950442;28;20686;-72
2022/12/14 09:31:25;;;;;;;15.55;5.07;;;16.20;99.90;;;;;;4962028;28;20050;-73
2022/12/14 09:33:53;;;;;;;10.27;4.10;;;16.30;99.90;;;;;;4966334;28;20543;-72
2022/12/14 09:36:24;;;;;;;22.48;4.88;;;16.30;99.90;;;;;;4952296;28;20117;-72
2022/12/14 09:38:56;;;;;;;11.52;4.63;;;16.30;99.90;;;;;;4943819;29;20141;-72
2022/12/14 09:41:33;;;;;;;15.18;4.05;;;16.30;99.90;;;;;;4953405;28;20039;-73
2022/12/14 09:44:31;;;;;;;10.55;4.18;;;16.30;99.90;;;;;;4970428;28;20076;-72
2022/12/14 09:47:01;;;;;;;8.60;4.38;;;16.40;99.90;;;;;;4970109;28;20466;-72
2022/12/14 09:49:49;;;;;;;9.68;4.28;;;16.40;99.90;;;;;;4955506;28;20047;-72
2022/12/14 09:52:25;;;;;;;25.45;7.65;;;16.30;99.90;;;;;;4941112;28;20063;-72
2022/12/14 09:54:53;;;;;;;10.67;5.30;;;16.30;99.90;;;;;;4947681;28;20055;-72
2022/12/14 09:57:37;;;;;;;11.52;5.35;;;16.30;99.90;;;;;;4952343;28;20759;-72
2022/12/14 10:00:12;;;;;;;11.07;4.95;;;16.30;99.90;;;;;;4951044;28;20523;-72
2022/12/14 10:03:18;;;;;;;16.38;4.53;;;16.30;99.90;;;;;;4950854;28;20055;-72
2022/12/14 10:06:24;;;;;;;14.93;5.20;;;16.30;99.90;;;;;;4960019;28;20050;-72
2022/12/14 10:09:25;;;;;;;7.85;4.53;;;16.30;99.90;;;;;;4884058;29;20059;-73
2022/12/14 10:12:04;;;;;;;16.83;5.60;;;16.20;99.90;;;;;;4870206;29;20519;-72
2022/12/14 10:14:35;;;;;;;14.68;4.95;;;16.20;99.90;;;;;;4949437;28;20063;-72
2022/12/14 10:17:11;;;;;;;14.30;4.75;;;16.20;99.90;;;;;;4969681;28;20042;-72
2022/12/14 10:20:01;;;;;;;14.50;5.30;;;16.20;99.90;;;;;;4957105;28;20062;-73
2022/12/14 10:22:38;;;;;;;14.57;5.35;;;16.10;99.90;;;;;;4953629;28;20047;-72
2022/12/14 10:25:24;;;;;;;14.43;5.45;;;16.20;99.90;;;;;;4920215;29;20061;-73
2022/12/14 10:28:01;;;;;;;13.82;5.15;;;16.10;99.90;;;;;;4965393;28;20426;-73
2022/12/14 10:30:41;;;;;;;26.30;6.38;;;16.10;99.90;;;;;;4954391;28;20103;-72
2022/12/14 10:33:25;;;;;;;8.57;3.85;;;16.10;99.90;;;;;;4953052;29;20080;-72
2022/12/14 10:36:04;;;;;;;12.10;6.15;;;16.10;99.90;;;;;;4937858;28;20402;-72
2022/12/14 10:39:00;;;;;;;18.05;6.05;;;16.10;99.90;;;;;;4953323;28;20047;-73
2022/12/14 10:41:58;;;;;;;11.60;5.55;;;16.10;99.90;;;;;;4936085;28;20062;-72
2022/12/14 10:44:32;;;;;;;17.27;6.53;;;16.10;99.90;;;;;;4966689;28;20446;-73
2022/12/14 10:47:14;;;;;;;10.50;3.50;;;16.10;99.90;;;;;;4965934;28;20036;-73
2022/12/14 10:49:48;;;;;;;11.32;5.05;;;16.10;99.90;;;;;;4960369;28;20050;-72
2022/12/14 10:52:30;;;;;;;9.23;4.18;;;16.20;99.90;;;;;;4965240;28;20053;-73
2022/12/14 10:55:03;;;;;;;10.73;4.47;;;16.20;99.90;;;;;;4962087;28;20133;-73
2022/12/14 10:57:31;;;;;;;8.05;4.30;;;16.10;99.90;;;;;;4969270;28;20438;-73
2022/12/14 10:59:58;;;;;;;8.55;3.58;;;16.20;99.90;;;;;;4970536;28;20060;-73
2022/12/14 11:02:42;;;;;;;11.93;5.00;;;16.20;99.90;;;;;;4971392;28;20066;-74
2022/12/14 11:05:30;;;;;;;9.73;4.20;;;16.20;99.90;;;;;;4970161;28;20055;-73
2022/12/14 11:08:05;;;;;;;8.00;4.13;;;16.20;99.90;;;;;;4933583;28;20382;-73
2022/12/14 11:10:34;;;;;;;11.32;4.13;;;16.20;99.90;;;;;;4949139;28;20437;-73
2022/12/14 11:13:13;;;;;;;12.10;5.05;;;16.20;99.90;;;;;;4949131;28;20062;-73
2022/12/14 11:15:46;;;;;;;10.43;4.43;;;16.30;99.90;;;;;;4934478;29;20070;-73
2022/12/14 11:18:18;;;;;;;9.38;4.82;;;16.30;99.90;;;;;;4959966;28;20050;-73
2022/12/14 11:21:15;;;;;;;13.75;5.82;;;16.30;99.90;;;;;;4969465;28;20513;-73
2022/12/14 11:23:46;;;;;;;14.20;5.28;;;16.20;99.90;;;;;;4966133;28;20421;-72
2022/12/14 11:26:24;;;;;;;18.77;6.35;;;16.10;99.90;;;;;;4969352;28;20065;-73
2022/12/14 11:28:55;;;;;;;10.35;4.38;;;16.10;99.90;;;;;;4971087;28;20158;-74
2022/12/14 11:31:25;;;;;;;15.35;6.07;;;16.10;99.90;;;;;;4965919;28;20127;-73
2022/12/14 11:33:56;;;;;;;8.13;3.75;;;16.00;99.90;;;;;;4969193;28;20129;-73
2022/12/14 11:36:28;;;;;;;7.72;4.10;;;16.10;99.90;;;;;;4964519;28;20141;-73
2022/12/14 11:39:19;;;;;;;13.20;4.57;;;16.00;99.90;;;;;;4968861;28;20043;-73
2022/12/14 11:41:51;;;;;;;9.57;3.72;;;16.10;99.90;;;;;;4967946;28;20062;-73
2022/12/14 11:44:23;;;;;;;12.70;4.55;;;16.10;99.90;;;;;;4971711;28;20098;-73
2022/12/14 11:46:50;;;;;;;11.20;4.45;;;16.10;99.90;;;;;;4969881;28;20551;-72
2022/12/14 11:49:29;;;;;;;18.98;5.65;;;16.10;99.90;;;;;;4966745;28;20039;-73
2022/12/14 11:52:03;;;;;;;14.00;4.97;;;16.10;99.90;;;;;;4951533;28;20075;-73
2022/12/14 11:54:31;;;;;;;9.13;5.28;;;16.10;99.90;;;;;;4934004;29;20059;-73
2022/12/14 11:57:19;;;;;;;9.82;3.65;;;16.10;99.90;;;;;;4950539;28;20054;-73
2022/12/14 12:00:20;;;;;;;10.35;4.07;;;16.10;99.90;;;;;;4960498;28;20053;-73
2022/12/14 12:02:58;;;;;;;10.15;4.88;;;16.10;99.90;;;;;;4951738;28;20047;-73
2022/12/14 12:05:31;;;;;;;12.70;5.15;;;16.10;99.90;;;;;;4950083;28;20059;-73
2022/12/14 12:08:01;;;;;;;10.25;3.53;;;16.10;99.90;;;;;;4949090;29;20042;-73
2022/12/14 12:10:32;;;;;;;11.02;5.00;;;16.10;99.90;;;;;;4960744;28;20080;-73
2022/12/14 12:13:02;;;;;;;12.07;5.32;;;16.10;99.90;;;;;;4960694;28;20107;-73
2022/12/14 12:15:42;;;;;;;14.35;6.38;;;16.10;99.90;;;;;;4957717;28;20498;-73
2022/12/14 12:18:34;;;;;;;9.98;3.75;;;16.10;99.90;;;;;;4944240;28;20051;-73
2022/12/14 12:21:26;;;;;;;11.27;4.93;;;16.10;99.90;;;;;;4964068;28;20410;-73
2022/12/14 12:24:06;;;;;;;13.05;4.68;;;16.10;99.90;;;;;;4965026;28;20079;-73
2022/12/14 12:26:41;;;;;;;11.07;5.20;;;16.20;99.90;;;;;;4959456;28;20047;-73
2022/12/14 12:29:28;;;;;;;12.27;7.93;;;16.10;99.90;;;;;;4953342;28;20043;-74
2022/12/14 12:32:23;;;;;;;12.15;4.10;;;16.10;99.90;;;;;;4968224;28;20062;-73
2022/12/14 12:34:55;;;;;;;8.40;4.10;;;16.10;99.90;;;;;;4966780;28;20600;-73
2022/12/14 12:37:41;;;;;;;11.48;5.93;;;16.10;99.90;;;;;;4966752;28;20134;-74
2022/12/14 12:40:09;;;;;;;12.32;4.65;;;16.10;99.90;;;;;;4970735;28;20042;-73
2022/12/14 12:42:43;;;;;;;19.08;7.40;;;16.10;99.90;;;;;;4956638;28;20043;-73
2022/12/14 12:45:31;;;;;;;17.15;5.95;;;16.10;99.90;;;;;;4970635;28;20046;-73
2022/12/14 12:48:22;;;;;;;10.68;5.95;;;16.00;99.90;;;;;;4954258;28;20635;-73
2022/12/14 12:50:58;;;;;;;15.07;5.20;;;16.00;99.90;;;;;;4951485;28;20062;-73
2022/12/14 12:53:36;;;;;;;10.32;5.20;;;16.00;99.90;;;;;;4933785;29;20059;-74
2022/12/14 12:56:17;;;;;;;12.95;6.25;;;15.90;99.90;;;;;;4951560;28;20711;-73
2022/12/14 12:58:48;;;;;;;12.32;5.10;;;15.90;99.90;;;;;;4950328;29;20055;-73
2022/12/14 13:01:21;;;;;;;15.23;5.55;;;15.90;99.90;;;;;;4955907;28;20053;-73
2022/12/14 13:03:52;;;;;;;13.25;4.80;;;15.80;99.90;;;;;;4953877;28;20126;-73
2022/12/14 13:06:29;;;;;;;8.55;3.55;;;15.60;99.90;;;;;;4950425;29;20461;-73
2022/12/14 13:09:00;;;;;;;6.13;3.97;;;15.60;99.90;;;;;;4951486;28;20075;-74
2022/12/14 13:11:35;;;;;;;9.68;4.05;;;15.50;99.90;;;;;;4956924;28;20170;-76
2022/12/14 13:14:16;;;;;;;10.18;4.30;;;15.50;99.90;;;;;;4937774;29;20053;-81
2022/12/14 13:16:45;;;;;;;9.27;4.55;;;15.50;99.90;;;;;;4934456;29;20145;-74
2022/12/14 13:19:16;;;;;;;10.68;3.47;;;15.50;99.90;;;;;;4951502;28;20039;-75
2022/12/14 13:22:08;;;;;;;9.95;4.43;;;15.50;99.90;;;;;;4961174;28;20042;-73
2022/12/14 13:24:37;;;;;;;11.75;4.57;;;15.50;99.90;;;;;;4951530;29;20552;-73
2022/12/14 13:27:37;;;;;;;9.13;4.00;;;15.50;99.90;;;;;;4934061;29;20141;-73
2022/12/14 13:30:07;;;;;;;13.07;5.00;;;15.50;99.90;;;;;;4947414;29;20089;-75
2022/12/14 13:32:57;;;;;;;9.90;4.30;;;15.50;99.90;;;;;;4955102;28;20047;-74